Time;durP1;ratioP1;P1;durP2;ratioP2;P2;SDS_P1;SDS_P2;PMS_P1;PMS_P2;Temp;Humidity;BMP_temperature;BMP_pressure;BME280_temperature;BME280_humidity;BME280_pressure;Samples;Min_cycle;Max_cycle;Signal;HPM_P1;HPM_P2
2024/04/10 00:00:20;;;;;;;4.00;1.88;;;;;;;10.75;63.15;98828.19;5569703;25;19996;-81
2024/04/10 00:02:46;;;;;;;8.30;1.67;;;;;;;10.40;63.38;98791.19;5537535;25;20013;-81
2024/04/10 00:05:13;;;;;;;4.40;1.92;;;;;;;10.74;64.04;98847.97;5603517;25;20071;-81
2024/04/10 00:07:38;;;;;;;1.90;1.60;;;;;;;10.66;64.77;98852.13;5569620;25;20015;-82
2024/04/10 00:10:04;;;;;;;3.05;1.92;;;;;;;10.39;65.08;98828.31;5569682;25;19996;-84
2024/04/10 00:12:30;;;;;;;2.15;1.95;;;;;;;10.48;66.36;98844.28;5569883;25;20007;-81
2024/04/10 00:14:55;;;;;;;3.30;2.20;;;;;;;10.27;66.14;98833.75;5543122;25;20015;-81
2024/04/10 00:17:22;;;;;;;4.35;2.35;;;;;;;10.09;66.55;98818.34;5570594;25;20000;-81
2024/04/10 00:19:51;;;;;;;7.10;1.88;;;;;;;10.08;66.83;98816.00;5570074;25;19996;-80
2024/04/10 00:22:16;;;;;;;4.00;2.50;;;;;;;9.96;67.02;98836.00;5548754;25;20009;-79
2024/04/10 00:24:42;;;;;;;6.55;2.70;;;;;;;9.64;68.92;98845.00;5622767;25;20046;-79
2024/04/10 00:27:07;;;;;;;4.50;2.25;;;;;;;9.46;70.41;98831.59;5590776;25;20000;-80
2024/04/10 00:29:33;;;;;;;5.75;2.65;;;;;;;9.07;69.81;98787.47;5578181;25;20451;-80
2024/04/10 00:31:59;;;;;;;2.95;2.40;;;;;;;9.22;71.54;98852.91;5537099;25;20001;-81
2024/04/10 00:34:26;;;;;;;3.90;2.00;;;;;;;9.23;72.74;98845.41;5602740;25;19996;-82
2024/04/10 00:36:51;;;;;;;5.10;2.00;;;;;;;9.37;71.99;98854.19;5577390;25;20005;-80
2024/04/10 00:39:16;;;;;;;1.95;1.63;;;;;;;9.31;72.28;98844.88;5506289;25;20073;-83
2024/04/10 00:41:42;;;;;;;3.90;1.90;;;;;;;9.31;72.49;98828.31;5565207;25;20068;-84
2024/04/10 00:44:08;;;;;;;3.28;2.13;;;;;;;9.33;71.88;98816.88;5567894;25;20075;-80
2024/04/10 00:46:35;;;;;;;4.50;1.83;;;;;;;9.34;71.62;98805.41;5602578;25;20031;-83
2024/04/10 00:49:01;;;;;;;2.97;2.03;;;;;;;9.54;71.25;98821.16;5507473;25;20326;-81
2024/04/10 00:51:27;;;;;;;2.55;1.80;;;;;;;9.50;70.68;98824.00;5564177;25;20024;-82
2024/04/10 00:53:54;;;;;;;3.80;2.10;;;;;;;9.63;71.00;98855.25;5545267;25;20000;-81
2024/04/10 00:56:20;;;;;;;2.28;2.08;;;;;;;9.52;70.63;98834.63;5568657;25;20000;-81
2024/04/10 00:58:47;;;;;;;3.30;1.73;;;;;;;9.55;71.01;98837.28;5555107;25;20076;-80
2024/04/10 01:01:13;;;;;;;4.78;1.90;;;;;;;9.65;70.53;98847.31;5558130;25;20000;-80
2024/04/10 01:03:40;;;;;;;3.95;1.75;;;;;;;9.68;70.66;98840.97;5569185;25;20328;-81
2024/04/10 01:06:07;;;;;;;4.88;2.03;;;;;;;9.68;70.50;98840.97;5538878;25;20013;-82
2024/04/10 01:08:35;;;;;;;2.35;1.67;;;;;;;9.71;70.49;98845.59;5567326;25;19992;-80
2024/04/10 01:11:05;;;;;;;4.93;2.10;;;;;;;9.73;69.88;98837.69;5568437;25;20008;-81
2024/04/10 01:13:32;;;;;;;3.30;1.88;;;;;;;9.73;69.94;98842.44;5568420;25;20011;-81
2024/04/10 01:15:58;;;;;;;3.42;1.63;;;;;;;9.55;70.11;98808.94;5601195;25;20432;-81
2024/04/10 01:18:24;;;;;;;3.20;2.00;;;;;;;9.52;69.84;98793.25;5602311;25;20067;-80
2024/04/10 01:20:49;;;;;;;4.47;1.98;;;;;;;9.53;70.10;98794.78;5575978;25;20011;-81
2024/04/10 01:23:19;;;;;;;4.22;1.80;;;;;;;9.70;69.12;98793.63;5554549;25;20004;-81
2024/04/10 01:25:44;;;;;;;2.40;1.90;;;;;;;9.52;69.50;98788.50;5566078;25;20480;-80
2024/04/10 01:28:10;;;;;;;2.35;1.77;;;;;;;9.70;69.93;98826.75;5599736;25;20019;-80
2024/04/10 01:30:35;;;;;;;2.53;1.92;;;;;;;9.34;70.29;98783.34;5566555;25;20007;-81
2024/04/10 01:33:01;;;;;;;4.95;2.05;;;;;;;9.45;70.62;98807.97;5601772;25;19996;-81
2024/04/10 01:35:26;;;;;;;2.17;1.95;;;;;;;9.14;71.08;98755.03;5567476;25;20000;-81
2024/04/10 01:37:52;;;;;;;4.55;2.03;;;;;;;9.49;71.22;98816.94;5567717;25;20346;-81
2024/04/10 01:40:17;;;;;;;3.40;1.90;;;;;;;9.35;70.42;98789.63;5565624;25;20925;-80
2024/04/10 01:42:44;;;;;;;4.60;1.90;;;;;;;9.66;69.89;98826.81;5601545;25;19996;-80
2024/04/10 01:45:10;;;;;;;2.13;1.73;;;;;;;9.51;70.11;98800.75;5510161;25;20016;-80
2024/04/10 01:47:35;;;;;;;3.17;1.90;;;;;;;9.13;70.32;98755.47;5530753;25;19996;-80
2024/04/10 01:50:00;;;;;;;5.72;2.22;;;;;;;9.36;70.65;98805.75;5590685;25;20012;-81
2024/04/10 01:52:26;;;;;;;2.58;2.30;;;;;;;9.28;70.53;98795.31;5600836;25;20011;-80
2024/04/10 01:54:52;;;;;;;3.67;1.98;;;;;;;9.32;71.07;98826.34;5600366;25;20027;-81
2024/04/10 01:57:18;;;;;;;2.30;1.85;;;;;;;9.32;71.34;98818.06;5554377;25;20000;-80
2024/04/10 01:59:44;;;;;;;3.47;1.88;;;;;;;9.35;71.71;98806.97;5530588;25;20008;-81
2024/04/10 02:02:09;;;;;;;3.00;2.05;;;;;;;9.33;70.92;98814.13;5554302;25;20426;-80
2024/04/10 02:04:35;;;;;;;3.63;2.28;;;;;;;9.12;71.17;98776.72;5523718;25;20009;-83
2024/04/10 02:07:01;;;;;;;3.80;2.20;;;;;;;9.34;70.61;98812.94;5518363;25;20313;-83
2024/04/10 02:09:27;;;;;;;5.80;1.90;;;;;;;8.75;71.11;98742.03;5542441;25;20076;-84
2024/04/10 02:11:52;;;;;;;3.20;1.88;;;;;;;8.88;71.07;98759.50;5543824;25;20007;-81
2024/04/10 02:14:17;;;;;;;3.38;1.98;;;;;;;8.78;71.28;98745.94;5567661;25;20396;-81
2024/04/10 02:16:43;;;;;;;2.45;2.20;;;;;;;9.04;71.35;98785.59;5586068;25;20441;-81
2024/04/10 02:19:10;;;;;;;3.47;1.70;;;;;;;9.23;70.79;98801.31;5589970;25;20024;-82
2024/04/10 02:21:35;;;;;;;4.03;1.77;;;;;;;9.46;70.52;98817.78;5567684;25;20431;-81
2024/04/10 02:24:01;;;;;;;2.20;1.63;;;;;;;9.43;69.84;98809.59;5567133;25;20007;-81
2024/04/10 02:26:26;;;;;;;2.55;1.98;;;;;;;9.38;69.48;98788.81;5567154;25;20008;-81
2024/04/10 02:28:52;;;;;;;4.47;2.10;;;;;;;9.59;68.93;98815.91;5541905;25;20348;-81
2024/04/10 02:31:17;;;;;;;1.70;1.60;;;;;;;9.55;68.84;98804.19;5566964;25;19996;-81
2024/04/10 02:33:43;;;;;;;6.68;2.00;;;;;;;9.58;68.91;98814.38;5573540;25;20004;-81
2024/04/10 02:36:11;;;;;;;3.97;1.92;;;;;;;9.61;69.05;98812.75;5577390;25;20000;-81
2024/04/10 02:38:37;;;;;;;3.47;2.03;;;;;;;9.57;68.66;98821.09;5541533;25;20025;-81
2024/04/10 02:41:03;;;;;;;4.43;2.20;;;;;;;8.93;68.57;98730.66;5550207;25;20001;-81
2024/04/10 02:43:28;;;;;;;2.90;1.95;;;;;;;9.22;68.96;98775.72;5584259;25;20000;-81
2024/04/10 02:45:57;;;;;;;6.85;2.10;;;;;;;9.44;69.78;98825.72;5604466;25;20000;-81
2024/04/10 02:48:23;;;;;;;3.83;2.47;;;;;;;9.20;70.29;98813.22;5570292;25;20447;-84
2024/04/10 02:50:49;;;;;;;3.80;2.53;;;;;;;8.95;71.18;98813.69;5571139;25;20319;-82
2024/04/10 02:53:15;;;;;;;3.65;2.40;;;;;;;8.79;72.38;98822.66;5571243;25;20014;-81
2024/04/10 02:55:45;;;;;;;3.63;2.45;;;;;;;8.73;72.33;98804.28;5555187;25;19997;-80
2024/04/10 02:58:11;;;;;;;6.38;2.42;;;;;;;8.75;73.33;98821.91;5534253;25;20012;-80
2024/04/10 03:00:50;;;;;;;4.40;2.53;;;;;;;8.58;73.33;98801.75;5570534;25;19999;-79
2024/04/10 03:03:16;;;;;;;5.15;1.88;;;;;;;8.51;74.04;98809.34;5624224;25;20006;-79
2024/04/10 03:05:45;;;;;;;3.30;2.50;;;;;;;8.33;74.80;98768.38;5607159;25;19996;-81
2024/04/10 03:08:11;;;;;;;3.10;1.63;;;;;;;8.30;74.92;98754.66;5569711;25;20001;-81
2024/04/10 03:10:37;;;;;;;2.53;1.92;;;;;;;8.82;74.06;98799.75;5554447;25;20000;-82
2024/04/10 03:13:04;;;;;;;6.30;3.55;;;;;;;8.74;72.72;98764.50;5562856;25;20065;-81
2024/04/10 03:15:29;;;;;;;5.03;2.28;;;;;;;8.84;72.08;98774.53;5553297;25;19996;-80
2024/04/10 03:17:55;;;;;;;3.80;2.10;;;;;;;8.74;71.54;98803.06;5570059;25;20413;-83
2024/04/10 03:20:21;;;;;;;2.15;1.83;;;;;;;8.59;71.49;98810.81;5603875;25;20428;-81
2024/04/10 03:22:46;;;;;;;11.38;2.50;;;;;;;8.34;72.44;98821.44;5545346;25;19996;-82
2024/04/10 03:25:12;;;;;;;3.45;2.70;;;;;;;7.96;73.02;98791.34;5549765;25;20437;-81
2024/04/10 03:27:40;;;;;;;3.85;2.60;;;;;;;7.63;74.30;98773.78;5564491;25;20000;-81
2024/04/10 03:30:07;;;;;;;4.13;2.45;;;;;;;7.47;76.59;98776.38;5543954;25;20073;-81
2024/04/10 03:32:33;;;;;;;4.68;3.30;;;;;;;7.56;77.30;98793.13;5594526;25;20407;-81
2024/04/10 03:34:59;;;;;;;3.30;3.00;;;;;;;7.49;78.61;98801.47;5548850;25;20349;-81
2024/04/10 03:37:24;;;;;;;5.07;2.80;;;;;;;7.40;79.32;98772.94;5566217;25;20053;-81
2024/04/10 03:39:51;;;;;;;5.22;2.22;;;;;;;7.66;79.66;98822.44;5552788;25;20392;-81
2024/04/10 03:42:17;;;;;;;3.05;2.22;;;;;;;7.74;79.75;98799.16;5544779;25;19995;-81
2024/04/10 03:44:43;;;;;;;3.00;2.00;;;;;;;8.05;78.93;98824.63;5549653;25;20000;-82
2024/04/10 03:47:08;;;;;;;3.90;1.90;;;;;;;8.24;77.59;98811.38;5540662;25;20456;-80
2024/04/10 03:49:34;;;;;;;3.03;2.28;;;;;;;8.37;76.45;98807.66;5569667;25;20000;-82
2024/04/10 03:51:59;;;;;;;3.08;1.85;;;;;;;8.54;76.14;98822.31;5569406;25;20404;-82
2024/04/10 03:54:24;;;;;;;3.55;1.80;;;;;;;8.52;74.46;98794.41;5569879;25;20008;-81
2024/04/10 03:56:50;;;;;;;3.97;2.00;;;;;;;8.88;73.88;98844.13;5560888;25;20011;-81
2024/04/10 03:59:15;;;;;;;2.35;1.80;;;;;;;8.83;73.86;98833.59;5532041;25;19997;-80
2024/04/10 04:01:41;;;;;;;4.05;1.90;;;;;;;8.77;74.12;98827.78;5565711;25;20016;-82
2024/04/10 04:04:06;;;;;;;2.72;2.03;;;;;;;8.93;73.36;98827.09;5552587;25;20428;-81
2024/04/10 04:06:32;;;;;;;6.47;2.25;;;;;;;8.91;73.67;98857.84;5568965;25;20008;-83
2024/04/10 04:08:58;;;;;;;8.32;2.45;;;;;;;8.91;72.57;98859.81;5542590;25;20449;-84
2024/04/10 04:11:23;;;;;;;3.45;2.10;;;;;;;8.81;72.45;98849.75;5591600;25;20008;-81
2024/04/10 04:13:48;;;;;;;7.15;2.85;;;;;;;8.64;72.13;98859.09;5583190;25;20001;-83
2024/04/10 04:16:14;;;;;;;4.55;2.92;;;;;;;8.30;71.43;98859.25;5557224;25;20017;-82
2024/04/10 04:18:42;;;;;;;10.85;5.00;;;;;;;8.30;70.95;98878.53;5566734;25;19996;-81
2024/04/10 04:21:09;;;;;;;10.95;5.50;;;;;;;7.89;71.45;98823.72;5603010;25;20004;-82
2024/04/10 04:23:36;;;;;;;7.40;4.22;;;;;;;8.08;72.17;98872.53;5602916;25;19996;-81
2024/04/10 04:26:02;;;;;;;12.43;5.18;;;;;;;8.06;72.47;98875.72;5512673;25;20014;-82
2024/04/10 04:28:27;;;;;;;5.70;3.53;;;;;;;8.16;71.80;98894.03;5582700;25;20000;-81
2024/04/10 04:30:53;;;;;;;14.25;3.50;;;;;;;7.93;72.53;98877.47;5564268;25;20318;-82
2024/04/10 04:33:18;;;;;;;7.95;3.40;;;;;;;8.05;73.64;98879.66;5601925;25;20461;-84
2024/04/10 04:35:45;;;;;;;6.72;3.25;;;;;;;8.80;72.82;98903.31;5567999;25;20134;-81
2024/04/10 04:38:11;;;;;;;8.98;3.30;;;;;;;9.43;70.14;98873.78;5603072;25;19996;-82
2024/04/10 04:40:37;;;;;;;7.95;3.47;;;;;;;10.66;64.57;98899.09;5603351;25;20011;-80
2024/04/10 04:43:08;;;;;;;7.38;3.03;;;;;;;11.71;60.44;98889.94;5603166;25;19992;-84
2024/04/10 04:45:33;;;;;;;;;;;;;;;12.89;54.91;98903.75;5560199;25;20025;-84
2024/04/10 04:47:59;;;;;;;;;;;;;;;13.73;51.94;98913.13;5586085;25;19930;-81
2024/04/10 04:50:24;;;;;;;;;;;;;;;14.19;50.59;98901.03;5602739;25;19923;-82
2024/04/10 04:52:50;;;;;;;;;;;;;;;14.65;49.22;98904.78;5603416;25;19922;-82
2024/04/10 04:55:15;;;;;;;;;;;;;;;15.28;48.27;98906.16;5536824;25;20254;-81
2024/04/10 04:57:40;;;;;;;;;;;;;;;15.80;47.27;98901.50;5531602;25;19924;-83
2024/04/10 05:00:11;;;;;;;;;;;;;;;16.16;46.29;98909.78;5564534;25;19930;-81
2024/04/10 05:02:46;;;;;;;;;;;;;;;16.76;45.21;98913.78;5580664;25;19923;-81
2024/04/10 05:05:15;;;;;;;;;;;;;;;17.05;44.73;98913.91;5556753;25;19951;-81
2024/04/10 05:07:41;;;;;;;;;;;;;;;17.39;43.90;98909.78;5557446;25;19930;-81
2024/04/10 05:10:08;;;;;;;;;;;;;;;18.08;43.28;98914.91;5602593;25;19934;-83
2024/04/10 05:12:33;;;;;;;;;;;;;;;18.51;41.61;98912.53;5602030;25;19926;-80
2024/04/10 05:14:58;;;;;;;;;;;;;;;19.27;40.18;98907.78;5578204;25;19991;-82
2024/04/10 05:17:24;;;;;;;;;;;;;;;19.45;38.68;98882.28;5576980;25;19991;-82
2024/04/10 05:19:49;;;;;;;;;;;;;;;19.64;38.83;98916.41;5564962;25;19923;-81
2024/04/10 05:22:15;;;;;;;;;;;;;;;20.29;38.53;98915.53;5589963;25;19930;-81
2024/04/10 05:24:41;;;;;;;;;;;;;;;21.06;36.95;98927.81;5544194;25;19934;-82
2024/04/10 05:27:08;;;;;;;;;;;;;;;21.47;35.46;98925.47;5543833;25;19931;-82
2024/04/10 05:29:33;;;;;;;;;;;;;;;22.35;34.18;98924.16;5532870;25;19989;-82
2024/04/10 05:31:59;;;;;;;;;;;;;;;23.18;32.09;98923.28;5591112;25;19930;-82
2024/04/10 05:34:24;;;;;;;;;;;;;;;23.94;31.74;98920.66;5540611;25;19922;-82
2024/04/10 05:36:49;;;;;;;;;;;;;;;24.27;31.74;98928.16;5585495;25;19966;-82
2024/04/10 05:39:19;;;;;;;;;;;;;;;24.87;29.25;98925.31;5623387;25;19922;-81
2024/04/10 05:41:44;;;;;;;;;;;;;;;25.56;28.84;98929.72;5582805;25;19922;-83
2024/04/10 05:44:09;;;;;;;;;;;;;;;26.23;27.84;98923.88;5603158;25;20348;-81
2024/04/10 05:46:35;;;;;;;;;;;;;;;26.89;26.46;98926.94;5568477;25;19933;-82
2024/04/10 05:49:00;;;;;;;;;;;;;;;27.20;25.24;98928.94;5537274;25;19947;-81
2024/04/10 05:51:25;;;;;;;;;;;;;;;27.19;25.71;98926.66;5542065;25;19922;-83
2024/04/10 05:53:51;;;;;;;;;;;;;;;27.89;25.05;98931.41;5602245;25;19922;-82
2024/04/10 05:56:16;;;;;;;;;;;;;;;26.06;25.56;98932.63;5567777;25;20280;-81
2024/04/10 05:58:41;;;;;;;;;;;;;;;26.47;25.82;98923.00;5589621;25;19930;-85
2024/04/10 06:01:08;;;;;;;;;;;;;;;26.47;25.09;98929.44;5588921;25;20025;-84
2024/04/10 06:03:33;;;;;;;;;;;;;;;27.08;24.63;98928.38;5576709;25;19929;-84
2024/04/10 06:06:08;;;;;;;;;;;;;;;26.38;25.46;98923.44;5601485;25;20287;-80
2024/04/10 06:08:34;;;;;;;;;;;;;;;27.52;23.81;98923.94;5546578;25;19923;-83
2024/04/10 06:10:59;;;;;;;;;;;;;;;27.95;23.79;98922.75;5534923;25;19922;-84
2024/04/10 06:13:25;;;;;;;;;;;;;;;27.26;24.43;98925.97;5529388;25;19930;-82
2024/04/10 06:16:01;;;;;;;;;;;;;;;27.42;24.12;98928.50;5525319;25;19934;-82
2024/04/10 06:18:27;;;;;;;;;;;;;;;27.51;24.85;98930.16;5546496;25;19948;-85
2024/04/10 06:20:59;;;;;;;;;;;;;;;27.39;25.21;98925.97;5584281;25;19922;-81
2024/04/10 06:23:25;;;;;;;;;;;;;;;28.05;24.43;98926.63;5567782;25;20020;-83
2024/04/10 06:25:54;;;;;;;;;;;;;;;28.27;24.24;98928.97;5601193;25;19931;-83
2024/04/10 06:28:21;;;;;;;;;;;;;;;27.63;25.13;98928.59;5601775;25;19991;-81
2024/04/10 06:30:46;;;;;;;;;;;;;;;27.42;25.38;98928.50;5560422;25;19923;-83
2024/04/10 06:33:13;;;;;;;;;;;;;;;27.76;25.31;98933.50;5582196;25;19942;-83
2024/04/10 06:35:38;;;;;;;;;;;;;;;27.85;25.18;98924.53;5567399;25;19933;-82
2024/04/10 06:38:03;;;;;;;;;;;;;;;28.24;24.12;98924.41;5601033;25;19922;-82
2024/04/10 06:40:30;;;;;;;;;;;;;;;28.13;23.97;98930.38;5567932;25;19958;-81
2024/04/10 06:42:56;;;;;;;;;;;;;;;27.83;24.81;98921.47;5567767;25;19989;-82
2024/04/10 06:45:23;;;;;;;;;;;;;;;28.58;24.26;98924.34;5536095;25;19930;-81
2024/04/10 06:47:48;;;;;;;;;;;;;;;27.95;24.46;98928.44;5550994;25;20010;-82
2024/04/10 06:50:14;;;;;;;;;;;;;;;28.10;24.15;98924.97;5541595;25;19962;-81
2024/04/10 06:52:39;;;;;;;;;;;;;;;28.58;25.28;98926.41;5568301;25;19922;-82
2024/04/10 06:55:06;;;;;;;;;;;;;;;28.59;24.79;98927.94;5594392;25;19926;-82
2024/04/10 06:57:31;;;;;;;;;;;;;;;28.57;24.25;98925.66;5530382;25;19927;-85
2024/04/10 07:00:02;;;;;;;;;;;;;;;28.30;25.02;98935.66;5528861;25;19923;-82
2024/04/10 07:02:28;;;;;;;;;;;;;;;29.17;24.06;98927.50;5550325;25;19922;-83
2024/04/10 07:04:54;;;;;;;;;;;;;;;29.57;23.35;98933.63;5559836;25;19934;-83
2024/04/10 07:07:20;;;;;;;;;;;;;;;30.01;22.43;98939.31;5583627;25;19990;-85
2024/04/10 07:09:50;;;;;;;;;;;;;;;30.64;22.47;98940.41;5593376;25;19934;-81
2024/04/10 07:12:15;;;;;;;;;;;;;;;30.60;22.60;98943.66;5563581;25;20020;-84
2024/04/10 07:14:41;;;;;;;;;;;;;;;29.66;22.30;98944.47;5595261;25;19922;-82
2024/04/10 07:17:06;;;;;;;;;;;;;;;28.37;22.83;98945.56;5566831;25;20516;-82
2024/04/10 07:19:34;;;;;;;;;;;;;;;29.64;22.86;98938.59;5600082;25;19922;-83
2024/04/10 07:22:03;;;;;;;;;;;;;;;29.40;21.64;98941.88;5600750;25;19926;-81
2024/04/10 07:24:28;;;;;;;;;;;;;;;29.64;23.49;98937.81;5542155;25;19930;-84
2024/04/10 07:26:53;;;;;;;;;;;;;;;29.79;22.46;98943.56;5582940;25;19990;-82
2024/04/10 07:29:19;;;;;;;;;;;;;;;29.16;22.85;98947.97;5566429;25;20369;-80
2024/04/10 07:31:44;;;;;;;;;;;;;;;29.51;22.97;98947.25;5583117;25;19930;-83
2024/04/10 07:34:11;;;;;;;;;;;;;;;29.33;21.92;98956.81;5532880;25;19930;-81
2024/04/10 07:36:37;;;;;;;;;;;;;;;27.04;25.30;98953.47;5533358;25;19990;-83
2024/04/10 07:39:02;;;;;;;;;;;;;;;26.54;26.43;98954.31;5533315;25;20305;-81
2024/04/10 07:41:28;;;;;;;;;;;;;;;27.59;25.20;98959.41;5587251;25;19990;-81
2024/04/10 07:43:53;;;;;;;;;;;;;;;28.71;24.00;98949.88;5570820;25;19922;-83
2024/04/10 07:46:20;;;;;;;;;;;;;;;26.74;24.57;98953.72;5569938;25;19927;-81
2024/04/10 07:48:53;;;;;;;;;;;;;;;25.00;27.60;98959.41;5505410;25;19962;-80
2024/04/10 07:51:18;;;;;;;;;;;;;;;24.09;28.93;98954.19;5526225;25;19924;-83
2024/04/10 07:53:43;;;;;;;;;;;;;;;23.97;29.63;98949.88;5599615;25;20266;-80
2024/04/10 07:56:09;;;;;;;;;;;;;;;22.90;30.57;98960.00;5539799;25;19922;-80
2024/04/10 07:58:36;;;;;;;;;;;;;;;22.48;32.42;98963.06;5603583;25;19922;-80
2024/04/10 08:01:01;;;;;;;;;;;;;;;21.76;32.67;98963.69;5548469;25;20456;-83
2024/04/10 08:03:29;;;;;;;;;;;;;;;21.10;33.20;98970.47;5576824;25;20242;-82
2024/04/10 08:05:55;;;;;;;;;;;;;;;20.84;33.66;98962.16;5572436;25;19923;-81
2024/04/10 08:08:21;;;;;;;;;;;;;;;20.61;34.93;98955.63;5562754;25;19929;-79
2024/04/10 08:10:47;;;;;;;;;;;;;;;20.55;34.06;98960.41;5589500;25;19922;-80
2024/04/10 08:13:12;;;;;;;;;;;;;;;20.52;35.41;98960.63;5595266;25;20366;-80
2024/04/10 08:15:37;;;;;;;;;;;;;;;20.74;35.10;98955.19;5566487;25;19930;-80
2024/04/10 08:18:03;;;;;;;;;;;;;;;20.67;34.64;98952.84;5535222;25;19930;-79
2024/04/10 08:20:28;;;;;;;;;;;;;;;20.68;34.80;98954.38;5558842;25;19924;-81
2024/04/10 08:22:53;;;;;;;;;;;;;;;20.25;35.04;98957.03;5591481;25;19922;-85
2024/04/10 08:25:19;;;;;;;;;;;;;;;20.66;34.63;98951.31;5571804;25;19930;-83
2024/04/10 08:27:44;;;;;;;;;;;;;;;20.78;34.87;98949.34;5538129;25;19926;-83
2024/04/10 08:30:10;;;;;;;;;;;;;;;20.89;34.40;98950.19;5536329;25;19922;-84
2024/04/10 08:32:35;;;;;;;;;;;;;;;20.87;33.39;98946.34;5563410;25;19922;-83
2024/04/10 08:35:01;;;;;;;;;;;;;;;20.68;34.64;98951.56;5567083;25;19929;-82
2024/04/10 08:37:27;;;;;;;;;;;;;;;20.77;32.99;98953.44;5553089;25;19922;-83
2024/04/10 08:39:52;;;;;;;;;;;;;;;20.73;32.90;98952.88;5569154;25;19922;-82
2024/04/10 08:42:18;;;;;;;;;;;;;;;20.98;34.22;98941.56;5549094;25;19923;-84
2024/04/10 08:44:44;;;;;;;;;;;;;;;20.98;34.10;98940.78;5565684;25;19989;-83
2024/04/10 08:47:10;;;;;;;;;;;;;;;21.22;35.95;98940.47;5548791;25;19923;-85
2024/04/10 08:49:37;;;;;;;;;;;;;;;21.33;32.08;98937.69;5541288;25;19923;-84
2024/04/10 08:52:02;;;;;;;;;;;;;;;21.20;32.70;98926.91;5570100;25;20242;-83
2024/04/10 08:54:29;;;;;;;;;;;;;;;21.09;31.82;98927.59;5599671;25;19922;-84
2024/04/10 08:56:55;;;;;;;;;;;;;;;21.04;32.62;98924.72;5565392;25;19928;-84
2024/04/10 08:59:20;;;;;;;;;;;;;;;21.12;32.23;98928.63;5566227;25;20258;-84
2024/04/10 09:01:46;;;;;;;;;;;;;;;21.31;33.95;98920.56;5544349;25;19923;-82
2024/04/10 09:04:13;;;;;;;;;;;;;;;21.42;33.81;98923.41;5595560;25;19994;-82
2024/04/10 09:06:38;;;;;;;;;;;;;;;21.52;33.90;98917.06;5558966;25;20410;-84
2024/04/10 09:09:06;;;;;;;;;;;;;;;21.67;34.59;98914.03;5560869;25;19930;-83
2024/04/10 09:11:32;;;;;;;;;;;;;;;21.80;34.26;98917.16;5528972;25;19992;-82
2024/04/10 09:14:04;;;;;;;;;;;;;;;21.92;31.72;98915.91;5548365;25;20287;-83
2024/04/10 09:16:30;;;;;;;;;;;;;;;21.87;35.20;98908.22;5562931;25;19991;-82
2024/04/10 09:18:55;;;;;;;;;;;;;;;22.09;33.46;98912.38;5539252;25;19931;-84
2024/04/10 09:21:21;;;;;;;;;;;;;;;22.04;33.20;98910.31;5550666;25;19923;-82
2024/04/10 09:23:46;;;;;;;;;;;;;;;22.05;31.60;98914.66;5508010;25;19923;-82
2024/04/10 09:26:17;;;;;;;;;;;;;;;21.91;31.02;98907.97;5522715;26;19931;-81
2024/04/10 09:28:43;;;;;;;;;;;;;;;21.92;32.88;98906.69;5524907;25;19929;-85
2024/04/10 09:31:16;;;;;;;;;;;;;;;21.76;31.22;98907.44;5552242;25;19931;-81
2024/04/10 09:33:44;;;;;;;;;;;;;;;21.80;32.39;98908.72;5552682;25;19923;-81
2024/04/10 09:36:10;;;;;;;;;;;;;;;21.68;32.42;98903.56;5562285;25;20419;-81
2024/04/10 09:38:36;;;;;;;;;;;;;;;21.68;32.97;98901.53;5536812;25;19930;-80
2024/04/10 09:41:05;;;;;;;;;;;;;;;21.90;34.01;98904.38;5522093;25;19923;-82
2024/04/10 09:43:31;;;;;;;;;;;;;;;21.66;32.15;98906.09;5527344;25;19924;-83
2024/04/10 09:45:57;;;;;;;;;;;;;;;21.82;32.29;98900.53;5547725;25;19930;-84
2024/04/10 09:48:25;;;;;;;;;;;;;;;21.72;31.05;98899.22;5524956;25;19950;-83
2024/04/10 09:50:53;;;;;;;;;;;;;;;21.65;30.85;98891.28;5523718;25;19923;-83
2024/04/10 09:53:19;;;;;;;;;;;;;;;21.64;30.80;98894.63;5519444;25;19932;-83
2024/04/10 09:55:44;;;;;;;;;;;;;;;21.75;30.28;98889.78;5513479;25;19924;-82
2024/04/10 09:58:10;;;;;;;;;;;;;;;21.89;32.40;98879.56;5517314;25;19942;-82
2024/04/10 10:00:36;;;;;;;;;;;;;;;21.86;32.25;98883.41;5525432;26;19930;-83
2024/04/10 10:03:08;;;;;;;;;;;;;;;21.71;32.29;98877.22;5520840;26;20015;-81
2024/04/10 10:05:34;;;;;;;;;;;;;;;21.86;30.79;98886.22;5536755;25;19924;-81
2024/04/10 10:08:04;;;;;;;;;;;;;;;21.97;32.30;98877.06;5497225;26;19928;-82
2024/04/10 10:12:40;;;;;;;;;;;;;;;22.00;30.89;98876.03;5519852;25;19939;-81
2024/04/10 10:15:20;;;;;;;;;;;;;;;22.05;32.35;98872.47;5513014;25;20004;-81
2024/04/10 10:17:51;;;;;;;;;;;;;;;22.05;31.84;98867.59;5530535;25;19953;-82
2024/04/10 10:20:20;;;;;;;;;;;;;;;22.10;34.10;98860.44;5526426;25;19943;-80
2024/04/10 10:23:01;;;;;;;;;;;;;;;22.35;32.87;98862.22;5526937;25;19996;-80
2024/04/10 10:25:27;;;;;;;;;;;;;;;22.35;32.92;98856.59;5527007;25;19935;-80
2024/04/10 10:28:02;;;;;;;;;;;;;;;22.25;31.58;98864.53;5522654;25;19928;-80
2024/04/10 10:30:28;;;;;;;;;;;;;;;22.40;31.45;98855.81;5518850;25;19936;-82
2024/04/10 10:33:00;;;;;;;;;;;;;;;22.44;33.91;98852.72;5533864;25;19927;-79
2024/04/10 10:35:25;;;;;;;;;;;;;;;22.65;31.76;98849.13;5545936;25;19928;-80
2024/04/10 10:37:51;;;;;;;;;;;;;;;22.69;31.01;98840.41;5536395;25;20352;-81
2024/04/10 10:40:16;;;;;;;;;;;;;;;22.54;30.32;98839.94;5547805;25;19919;-79
2024/04/10 10:42:42;;;;;;;;;;;;;;;22.48;30.85;98842.75;5547759;25;19956;-81
2024/04/10 10:45:07;;;;;;;;;;;;;;;22.54;30.73;98835.06;5550390;25;19927;-80
2024/04/10 10:47:39;;;;;;;;;;;;;;;22.69;32.98;98829.91;5525401;25;19936;-80
2024/04/10 10:50:04;;;;;;;;;;;;;;;22.77;31.80;98829.41;5530307;25;19927;-80
2024/04/10 10:52:31;;;;;;;;;;;;;;;22.77;31.25;98833.00;5508262;26;19927;-82
2024/04/10 10:54:56;;;;;;;;;;;;;;;22.82;32.95;98822.97;5506320;25;20004;-82
2024/04/10 10:57:22;;;;;;;;;;;;;;;22.96;31.73;98814.22;5507555;26;19944;-81
2024/04/10 10:59:47;;;;;;;;;;;;;;;22.80;30.53;98817.84;5502299;25;19928;-81
2024/04/10 11:02:15;;;;;;;;;;;;;;;22.63;30.92;98819.94;5506338;26;19936;-84
2024/04/10 11:04:40;;;;;;;;;;;;;;;22.48;30.52;98813.84;5505866;25;19936;-83
2024/04/10 11:07:09;;;;;;;;;;;;;;;22.59;31.08;98800.50;5506225;26;19996;-81
2024/04/10 11:09:34;;;;;;;;;;;;;;;22.48;30.05;98808.97;5506040;26;19977;-82
2024/04/10 11:12:01;;;;;;;;;;;;;;;22.54;31.23;98811.78;5506208;26;19951;-81
2024/04/10 11:14:26;;;;;;;;;;;;;;;22.60;30.87;98812.53;5506731;26;20135;-82
2024/04/10 11:17:03;;;;;;;;;;;;;;;22.66;30.73;98813.28;5507987;26;20345;-83
2024/04/10 11:19:28;;;;;;;;;;;;;;;22.65;30.76;98803.28;5501578;26;19929;-82
2024/04/10 11:21:54;;;;;;;;;;;;;;;22.77;30.32;98804.81;5498018;26;20359;-81
2024/04/10 11:24:20;;;;;;;;;;;;;;;22.66;30.82;98799.97;5488718;26;19928;-81
2024/04/10 11:26:45;;;;;;;;;;;;;;;22.76;29.81;98799.69;5493141;26;19972;-81
2024/04/10 11:29:11;;;;;;;;;;;;;;;22.91;30.79;98798.09;5492736;26;19928;-83
2024/04/10 11:31:36;;;;;;;;;;;;;;;22.90;29.78;98793.00;5490389;26;20249;-84
2024/04/10 11:34:01;;;;;;;;;;;;;;;22.99;30.47;98795.50;5490859;26;20425;-84
2024/04/10 11:36:27;;;;;;;;;;;;;;;23.02;28.96;98797.28;5490922;26;19928;-82
2024/04/10 11:38:52;;;;;;;;;;;;;;;23.00;29.86;98785.75;5491463;26;20348;-84
2024/04/10 11:41:17;;;;;;;;;;;;;;;23.06;29.10;98789.31;5493030;26;19928;-82
2024/04/10 11:43:43;;;;;;;;;;;;;;;23.06;29.56;98784.47;5490291;26;19936;-81
2024/04/10 11:46:09;;;;;;;;;;;;;;;23.09;29.04;98789.03;5472084;26;19935;-82
2024/04/10 11:48:34;;;;;;;;;;;;;;;23.02;27.99;98783.97;5478455;26;19929;-83
2024/04/10 11:51:00;;;;;;;;;;;;;;;22.97;27.74;98781.94;5472679;26;19931;-82
2024/04/10 11:53:25;;;;;;;;;;;;;;;23.01;28.58;98776.81;5490428;26;20376;-84
2024/04/10 11:55:51;;;;;;;;;;;;;;;23.04;28.38;98775.75;5490180;26;19929;-83
2024/04/10 11:58:16;;;;;;;;;;;;;;;23.05;28.53;98776.50;5490534;26;19928;-82
2024/04/10 12:00:42;;;;;;;;;;;;;;;23.10;28.91;98776.47;5493752;26;19935;-83
2024/04/10 12:03:07;;;;;;;;;;;;;;;23.06;31.14;98770.38;5491978;26;19935;-82
2024/04/10 12:05:39;;;;;;;;;;;;;;;23.16;28.16;98772.88;5489077;26;19936;-83
2024/04/10 12:08:04;;;;;;;;;;;;;;;23.10;29.25;98772.91;5487024;26;19929;-84
2024/04/10 12:10:31;;;;;;;;;;;;;;;23.25;28.19;98764.88;5490443;26;20258;-84
2024/04/10 12:12:58;;;;;;;;;;;;;;;23.32;27.44;98760.75;5490783;26;19956;-82
2024/04/10 12:15:23;;;;;;;;;;;;;;;23.35;27.97;98760.44;5493247;26;19934;-83
2024/04/10 12:17:49;;;;;;;;;;;;;;;23.35;28.80;98749.19;5487032;26;19928;-84